sensor_id;sensor_type;location;lat;lon;timestamp;pressure;altitude;pressure_sealevel;temperature;humidity
62124;BME280;48110;47.532;19.078;2023-03-17T00:01:58;101274.31;;;0.87;58.58
62124;BME280;48110;47.532;19.078;2023-03-17T00:05:22;101270.25;;;0.81;60.06
62124;BME280;48110;47.532;19.078;2023-03-17T00:08:30;101273.13;;;0.77;60.32
62124;BME280;48110;47.532;19.078;2023-03-17T00:11:40;101278.06;;;0.66;61.33
62124;BME280;48110;47.532;19.078;2023-03-17T00:14:45;101267.09;;;0.59;61.92
62124;BME280;48110;47.532;19.078;2023-03-17T00:17:54;101267.28;;;0.56;62.64
62124;BME280;48110;47.532;19.078;2023-03-17T00:21:03;101266.59;;;0.53;64.14
62124;BME280;48110;47.532;19.078;2023-03-17T00:24:11;101270.47;;;0.46;64.63
62124;BME280;48110;47.532;19.078;2023-03-17T00:27:20;101261.09;;;0.41;65.09
62124;BME280;48110;47.532;19.078;2023-03-17T00:30:26;101263.91;;;0.38;66.22
62124;BME280;48110;47.532;19.078;2023-03-17T00:33:35;101263.19;;;0.35;66.77
62124;BME280;48110;47.532;19.078;2023-03-17T00:36:45;101263.53;;;0.29;69.94
62124;BME280;48110;47.532;19.078;2023-03-17T00:39:53;101261.13;;;0.24;69.79
62124;BME280;48110;47.532;19.078;2023-03-17T00:43:03;101249.12;;;0.22;72.11
62124;BME280;48110;47.532;19.078;2023-03-17T00:46:11;101252.75;;;0.19;72.97
62124;BME280;48110;47.532;19.078;2023-03-17T00:49:20;101254.81;;;0.13;73.52
62124;BME280;48110;47.532;19.078;2023-03-17T00:52:26;101252.94;;;0.15;74.83
62124;BME280;48110;47.532;19.078;2023-03-17T00:55:34;101253.19;;;0.10;78.26
62124;BME280;48110;47.532;19.078;2023-03-17T00:58:43;101249.16;;;0.05;79.92
62124;BME280;48110;47.532;19.078;2023-03-17T01:01:53;101242.56;;;-0.03;82.45
62124;BME280;48110;47.532;19.078;2023-03-17T01:05:03;101243.78;;;-0.10;84.83
62124;BME280;48110;47.532;19.078;2023-03-17T01:08:15;101250.87;;;-0.12;87.54
62124;BME280;48110;47.532;19.078;2023-03-17T01:11:23;101255.06;;;-0.09;89.76
62124;BME280;48110;47.532;19.078;2023-03-17T01:14:30;101243.59;;;-0.22;91.52
62124;BME280;48110;47.532;19.078;2023-03-17T01:17:42;101245.50;;;-0.26;91.49
62124;BME280;48110;47.532;19.078;2023-03-17T01:20:52;101251.25;;;-0.19;90.94
62124;BME280;48110;47.532;19.078;2023-03-17T01:24:01;101257.94;;;-0.31;91.20
62124;BME280;48110;47.532;19.078;2023-03-17T01:27:11;101263.22;;;-0.32;91.32
62124;BME280;48110;47.532;19.078;2023-03-17T01:33:25;101254.34;;;-0.46;89.98
62124;BME280;48110;47.532;19.078;2023-03-17T01:36:31;101265.22;;;-0.55;90.43
62124;BME280;48110;47.532;19.078;2023-03-17T01:39:40;101262.97;;;-0.62;91.32
62124;BME280;48110;47.532;19.078;2023-03-17T01:42:48;101264.53;;;-0.58;91.31
62124;BME280;48110;47.532;19.078;2023-03-17T01:49:26;101264.03;;;-0.66;92.97
62124;BME280;48110;47.532;19.078;2023-03-17T01:52:37;101264.00;;;-0.30;94.33
62124;BME280;48110;47.532;19.078;2023-03-17T01:55:48;101266.97;;;-0.38;96.77
62124;BME280;48110;47.532;19.078;2023-03-17T01:58:57;101249.34;;;-0.33;96.00
62124;BME280;48110;47.532;19.078;2023-03-17T02:02:07;101243.91;;;-0.46;97.42
62124;BME280;48110;47.532;19.078;2023-03-17T02:05:19;101247.97;;;-0.57;98.07
62124;BME280;48110;47.532;19.078;2023-03-17T02:08:23;101245.12;;;-0.70;100.00
62124;BME280;48110;47.532;19.078;2023-03-17T02:11:32;101262.28;;;-0.83;100.00
62124;BME280;48110;47.532;19.078;2023-03-17T02:14:39;101274.16;;;-0.96;100.00
62124;BME280;48110;47.532;19.078;2023-03-17T02:17:46;101277.94;;;-1.02;100.00
62124;BME280;48110;47.532;19.078;2023-03-17T02:24:07;101286.88;;;-0.71;100.00
62124;BME280;48110;47.532;19.078;2023-03-17T02:27:18;101299.94;;;-0.90;100.00
62124;BME280;48110;47.532;19.078;2023-03-17T02:30:28;101303.16;;;-0.85;100.00
62124;BME280;48110;47.532;19.078;2023-03-17T02:33:37;101311.91;;;-0.86;100.00
62124;BME280;48110;47.532;19.078;2023-03-17T02:36:43;101302.44;;;-0.70;100.00
62124;BME280;48110;47.532;19.078;2023-03-17T02:39:51;101307.81;;;-0.92;100.00
62124;BME280;48110;47.532;19.078;2023-03-17T02:43:00;101293.91;;;-1.09;100.00
62124;BME280;48110;47.532;19.078;2023-03-17T02:46:05;101296.09;;;-1.19;100.00
62124;BME280;48110;47.532;19.078;2023-03-17T02:49:12;101297.72;;;-1.16;100.00
62124;BME280;48110;47.532;19.078;2023-03-17T02:52:19;101290.47;;;-1.28;100.00
62124;BME280;48110;47.532;19.078;2023-03-17T02:55:24;101291.66;;;-1.17;100.00
62124;BME280;48110;47.532;19.078;2023-03-17T02:58:31;101288.28;;;-1.19;100.00
62124;BME280;48110;47.532;19.078;2023-03-17T03:01:39;101298.56;;;-0.97;100.00
62124;BME280;48110;47.532;19.078;2023-03-17T03:04:44;101300.31;;;-1.16;100.00
62124;BME280;48110;47.532;19.078;2023-03-17T03:07:53;101297.63;;;-1.34;100.00
62124;BME280;48110;47.532;19.078;2023-03-17T03:11:00;101300.81;;;-1.46;100.00
62124;BME280;48110;47.532;19.078;2023-03-17T03:14:08;101306.22;;;-1.50;100.00
62124;BME280;48110;47.532;19.078;2023-03-17T03:17:14;101293.91;;;-1.47;100.00
62124;BME280;48110;47.532;19.078;2023-03-17T03:20:23;101288.19;;;-1.55;100.00
62124;BME280;48110;47.532;19.078;2023-03-17T03:23:30;101298.16;;;-1.64;100.00
62124;BME280;48110;47.532;19.078;2023-03-17T03:26:40;101303.38;;;-1.64;100.00
62124;BME280;48110;47.532;19.078;2023-03-17T03:29:52;101301.06;;;-1.70;100.00
62124;BME280;48110;47.532;19.078;2023-03-17T03:33:02;101292.50;;;-1.74;100.00
62124;BME280;48110;47.532;19.078;2023-03-17T03:36:08;101301.91;;;-1.70;100.00
62124;BME280;48110;47.532;19.078;2023-03-17T03:39:20;101310.16;;;-1.60;100.00
62124;BME280;48110;47.532;19.078;2023-03-17T03:42:27;101304.22;;;-1.64;100.00
62124;BME280;48110;47.532;19.078;2023-03-17T03:45:35;101300.31;;;-1.74;100.00
62124;BME280;48110;47.532;19.078;2023-03-17T03:48:43;101298.47;;;-1.52;100.00
62124;BME280;48110;47.532;19.078;2023-03-17T03:51:50;101301.69;;;-1.65;100.00
62124;BME280;48110;47.532;19.078;2023-03-17T03:54:58;101298.69;;;-1.56;100.00
62124;BME280;48110;47.532;19.078;2023-03-17T03:58:06;101292.47;;;-1.72;100.00
62124;BME280;48110;47.532;19.078;2023-03-17T04:01:15;101295.44;;;-1.61;100.00
62124;BME280;48110;47.532;19.078;2023-03-17T04:04:22;101291.19;;;-1.64;100.00
62124;BME280;48110;47.532;19.078;2023-03-17T04:07:27;101283.41;;;-1.64;100.00
62124;BME280;48110;47.532;19.078;2023-03-17T04:10:37;101289.19;;;-1.57;100.00
62124;BME280;48110;47.532;19.078;2023-03-17T04:13:44;101289.00;;;-1.73;100.00
62124;BME280;48110;47.532;19.078;2023-03-17T04:16:51;101276.63;;;-1.87;100.00
62124;BME280;48110;47.532;19.078;2023-03-17T04:19:58;101275.97;;;-1.92;100.00
62124;BME280;48110;47.532;19.078;2023-03-17T04:23:05;101282.22;;;-1.96;100.00
62124;BME280;48110;47.532;19.078;2023-03-17T04:26:14;101283.12;;;-1.97;100.00
62124;BME280;48110;47.532;19.078;2023-03-17T04:29:24;101287.63;;;-2.00;100.00
62124;BME280;48110;47.532;19.078;2023-03-17T04:32:31;101287.87;;;-2.06;100.00
62124;BME280;48110;47.532;19.078;2023-03-17T04:35:42;101291.28;;;-2.04;100.00
62124;BME280;48110;47.532;19.078;2023-03-17T04:38:51;101288.88;;;-2.09;100.00
62124;BME280;48110;47.532;19.078;2023-03-17T04:42:01;101294.44;;;-1.98;100.00
62124;BME280;48110;47.532;19.078;2023-03-17T04:45:11;101300.72;;;-1.83;100.00
62124;BME280;48110;47.532;19.078;2023-03-17T04:48:19;101296.00;;;-1.55;100.00
62124;BME280;48110;47.532;19.078;2023-03-17T04:51:26;101302.75;;;-1.69;100.00
62124;BME280;48110;47.532;19.078;2023-03-17T04:54:33;101306.53;;;-1.77;100.00
62124;BME280;48110;47.532;19.078;2023-03-17T04:57:40;101311.06;;;-1.82;100.00
62124;BME280;48110;47.532;19.078;2023-03-17T05:00:50;101310.56;;;-1.90;100.00
62124;BME280;48110;47.532;19.078;2023-03-17T05:04:02;101306.47;;;-1.75;100.00
62124;BME280;48110;47.532;19.078;2023-03-17T05:07:11;101309.47;;;-1.84;100.00
62124;BME280;48110;47.532;19.078;2023-03-17T05:10:22;101312.69;;;-1.79;100.00
62124;BME280;48110;47.532;19.078;2023-03-17T05:13:33;101308.06;;;-1.72;100.00
62124;BME280;48110;47.532;19.078;2023-03-17T05:16:44;101317.50;;;-1.70;100.00
62124;BME280;48110;47.532;19.078;2023-03-17T05:19:53;101310.91;;;-1.58;100.00
62124;BME280;48110;47.532;19.078;2023-03-17T05:23:02;101317.81;;;-1.57;100.00
62124;BME280;48110;47.532;19.078;2023-03-17T05:26:11;101314.87;;;-1.31;100.00
62124;BME280;48110;47.532;19.078;2023-03-17T05:29:19;101312.97;;;-1.27;100.00
62124;BME280;48110;47.532;19.078;2023-03-17T05:32:27;101320.44;;;-1.20;100.00
62124;BME280;48110;47.532;19.078;2023-03-17T05:35:36;101323.03;;;-1.20;100.00
62124;BME280;48110;47.532;19.078;2023-03-17T05:38:48;101328.03;;;-1.15;100.00
62124;BME280;48110;47.532;19.078;2023-03-17T05:41:58;101328.59;;;-0.90;100.00
62124;BME280;48110;47.532;19.078;2023-03-17T05:45:06;101329.59;;;-0.93;100.00
62124;BME280;48110;47.532;19.078;2023-03-17T05:48:12;101329.84;;;-0.80;100.00
62124;BME280;48110;47.532;19.078;2023-03-17T05:51:18;101323.06;;;-0.65;100.00
62124;BME280;48110;47.532;19.078;2023-03-17T05:54:28;101314.25;;;-0.63;100.00
62124;BME280;48110;47.532;19.078;2023-03-17T05:57:32;101318.94;;;-0.52;100.00
62124;BME280;48110;47.532;19.078;2023-03-17T06:00:38;101329.75;;;-0.43;100.00
62124;BME280;48110;47.532;19.078;2023-03-17T06:03:47;101327.03;;;-0.39;100.00
62124;BME280;48110;47.532;19.078;2023-03-17T06:06:53;101330.72;;;-0.26;100.00
62124;BME280;48110;47.532;19.078;2023-03-17T06:09:59;101315.66;;;-0.04;100.00
62124;BME280;48110;47.532;19.078;2023-03-17T06:13:05;101321.41;;;0.20;100.00
62124;BME280;48110;47.532;19.078;2023-03-17T06:16:10;101333.28;;;0.25;100.00
62124;BME280;48110;47.532;19.078;2023-03-17T06:19:18;101321.75;;;0.29;100.00
62124;BME280;48110;47.532;19.078;2023-03-17T06:22:22;101322.59;;;0.47;100.00
62124;BME280;48110;47.532;19.078;2023-03-17T06:25:27;101335.88;;;0.75;98.55
62124;BME280;48110;47.532;19.078;2023-03-17T06:28:34;101337.06;;;1.17;96.91
62124;BME280;48110;47.532;19.078;2023-03-17T06:31:38;101343.13;;;1.64;92.29
62124;BME280;48110;47.532;19.078;2023-03-17T06:34:43;101344.38;;;2.17;84.49
62124;BME280;48110;47.532;19.078;2023-03-17T06:37:48;101342.47;;;2.63;80.18
62124;BME280;48110;47.532;19.078;2023-03-17T06:40:53;101345.72;;;2.67;80.81
62124;BME280;48110;47.532;19.078;2023-03-17T06:43:56;101347.91;;;2.60;79.64
62124;BME280;48110;47.532;19.078;2023-03-17T06:47:00;101342.63;;;2.88;76.19
62124;BME280;48110;47.532;19.078;2023-03-17T06:50:04;101347.97;;;2.87;76.56
62124;BME280;48110;47.532;19.078;2023-03-17T06:53:09;101353.00;;;3.45;74.01
62124;BME280;48110;47.532;19.078;2023-03-17T06:56:13;101352.56;;;4.17;68.75
62124;BME280;48110;47.532;19.078;2023-03-17T06:59:32;101350.50;;;4.35;68.43
62124;BME280;48110;47.532;19.078;2023-03-17T07:02:36;101352.94;;;5.49;61.81
62124;BME280;48110;47.532;19.078;2023-03-17T07:05:42;101360.38;;;6.02;58.83
62124;BME280;48110;47.532;19.078;2023-03-17T07:08:46;101360.03;;;6.07;57.11
62124;BME280;48110;47.532;19.078;2023-03-17T07:11:51;101372.91;;;6.23;54.05
62124;BME280;48110;47.532;19.078;2023-03-17T07:14:55;101364.59;;;6.16;52.50
62124;BME280;48110;47.532;19.078;2023-03-17T07:18:02;101372.75;;;6.70;53.49
62124;BME280;48110;47.532;19.078;2023-03-17T07:21:05;101375.34;;;6.59;52.79
62124;BME280;48110;47.532;19.078;2023-03-17T07:24:10;101378.84;;;6.93;52.69
62124;BME280;48110;47.532;19.078;2023-03-17T07:27:20;101371.91;;;7.14;51.24
62124;BME280;48110;47.532;19.078;2023-03-17T07:30:26;101372.09;;;7.87;47.97
62124;BME280;48110;47.532;19.078;2023-03-17T07:33:31;101378.22;;;8.61;46.02
62124;BME280;48110;47.532;19.078;2023-03-17T07:36:36;101379.00;;;10.01;43.81
62124;BME280;48110;47.532;19.078;2023-03-17T07:39:40;101378.00;;;11.24;41.83
62124;BME280;48110;47.532;19.078;2023-03-17T07:42:44;101374.41;;;11.88;39.58
62124;BME280;48110;47.532;19.078;2023-03-17T07:45:49;101375.41;;;10.21;40.05
62124;BME280;48110;47.532;19.078;2023-03-17T07:48:55;101376.50;;;9.99;40.27
62124;BME280;48110;47.532;19.078;2023-03-17T07:52:01;101378.22;;;11.85;36.88
62124;BME280;48110;47.532;19.078;2023-03-17T07:55:07;101381.19;;;12.69;36.06
62124;BME280;48110;47.532;19.078;2023-03-17T07:58:15;101377.13;;;13.59;34.31
62124;BME280;48110;47.532;19.078;2023-03-17T08:01:22;101375.25;;;13.35;32.61
62124;BME280;48110;47.532;19.078;2023-03-17T08:04:27;101374.47;;;13.67;34.22
62124;BME280;48110;47.532;19.078;2023-03-17T08:07:30;101375.59;;;15.02;31.31
62124;BME280;48110;47.532;19.078;2023-03-17T08:10:40;101367.81;;;15.62;29.79
62124;BME280;48110;47.532;19.078;2023-03-17T08:13:46;101366.81;;;15.86;29.58
62124;BME280;48110;47.532;19.078;2023-03-17T08:16:51;101366.91;;;16.52;29.71
62124;BME280;48110;47.532;19.078;2023-03-17T08:19:57;101355.25;;;12.97;32.17
62124;BME280;48110;47.532;19.078;2023-03-17T08:23:01;101355.75;;;15.89;28.90
62124;BME280;48110;47.532;19.078;2023-03-17T08:26:07;101352.19;;;14.08;30.53
62124;BME280;48110;47.532;19.078;2023-03-17T08:29:12;101347.94;;;11.51;33.20
62124;BME280;48110;47.532;19.078;2023-03-17T08:32:15;101352.19;;;13.84;31.06
62124;BME280;48110;47.532;19.078;2023-03-17T08:35:22;101349.03;;;14.45;29.84
62124;BME280;48110;47.532;19.078;2023-03-17T08:38:26;101338.66;;;14.50;30.00
62124;BME280;48110;47.532;19.078;2023-03-17T08:41:31;101343.28;;;14.81;29.52
62124;BME280;48110;47.532;19.078;2023-03-17T08:44:35;101343.28;;;15.81;28.03
62124;BME280;48110;47.532;19.078;2023-03-17T08:47:42;101342.31;;;13.10;28.87
62124;BME280;48110;47.532;19.078;2023-03-17T08:50:49;101347.88;;;15.03;27.06
62124;BME280;48110;47.532;19.078;2023-03-17T08:53:55;101343.41;;;16.63;25.28
62124;BME280;48110;47.532;19.078;2023-03-17T08:57:03;101339.19;;;12.89;27.17
62124;BME280;48110;47.532;19.078;2023-03-17T09:00:07;101341.87;;;12.89;27.77
62124;BME280;48110;47.532;19.078;2023-03-17T09:03:14;101344.84;;;11.28;29.99
62124;BME280;48110;47.532;19.078;2023-03-17T09:06:18;101346.91;;;9.75;32.29
62124;BME280;48110;47.532;19.078;2023-03-17T09:09:24;101346.66;;;9.09;33.37
62124;BME280;48110;47.532;19.078;2023-03-17T09:12:30;101337.84;;;8.99;34.54
62124;BME280;48110;47.532;19.078;2023-03-17T09:15:36;101351.78;;;9.01;33.96
62124;BME280;48110;47.532;19.078;2023-03-17T09:18:40;101345.87;;;8.58;35.34
62124;BME280;48110;47.532;19.078;2023-03-17T09:21:46;101344.59;;;8.52;35.18
62124;BME280;48110;47.532;19.078;2023-03-17T09:24:52;101346.72;;;8.58;35.18
62124;BME280;48110;47.532;19.078;2023-03-17T09:27:56;101337.53;;;8.32;34.52
62124;BME280;48110;47.532;19.078;2023-03-17T09:31:03;101330.91;;;8.47;35.99
62124;BME280;48110;47.532;19.078;2023-03-17T09:34:08;101328.16;;;8.49;35.61
62124;BME280;48110;47.532;19.078;2023-03-17T09:37:15;101332.88;;;8.45;35.05
62124;BME280;48110;47.532;19.078;2023-03-17T09:40:18;101323.12;;;8.25;35.06
62124;BME280;48110;47.532;19.078;2023-03-17T09:43:27;101327.69;;;8.23;34.86
62124;BME280;48110;47.532;19.078;2023-03-17T09:49:46;101316.56;;;8.40;34.99
62124;BME280;48110;47.532;19.078;2023-03-17T09:52:50;101317.53;;;8.39;34.44
62124;BME280;48110;47.532;19.078;2023-03-17T09:55:56;101318.34;;;8.19;35.63
62124;BME280;48110;47.532;19.078;2023-03-17T09:59:04;101313.94;;;8.29;35.14
62124;BME280;48110;47.532;19.078;2023-03-17T10:02:14;101307.25;;;8.25;34.67
62124;BME280;48110;47.532;19.078;2023-03-17T10:05:21;101304.06;;;8.42;35.15
62124;BME280;48110;47.532;19.078;2023-03-17T10:08:30;101308.56;;;8.51;33.92
62124;BME280;48110;47.532;19.078;2023-03-17T10:11:41;101309.97;;;8.55;33.84
62124;BME280;48110;47.532;19.078;2023-03-17T10:18:01;101300.06;;;8.57;34.00
62124;BME280;48110;47.532;19.078;2023-03-17T10:21:06;101302.91;;;8.65;34.20
62124;BME280;48110;47.532;19.078;2023-03-17T10:24:12;101299.34;;;8.76;34.03
62124;BME280;48110;47.532;19.078;2023-03-17T10:27:16;101289.38;;;8.99;34.77
62124;BME280;48110;47.532;19.078;2023-03-17T10:30:23;101286.84;;;8.97;33.46
62124;BME280;48110;47.532;19.078;2023-03-17T10:33:26;101283.09;;;8.90;34.03
62124;BME280;48110;47.532;19.078;2023-03-17T10:36:34;101271.31;;;9.13;33.52
62124;BME280;48110;47.532;19.078;2023-03-17T10:39:45;101270.56;;;9.02;33.15
62124;BME280;48110;47.532;19.078;2023-03-17T10:42:51;101267.94;;;9.11;32.96
62124;BME280;48110;47.532;19.078;2023-03-17T10:45:58;101261.81;;;9.11;33.74
62124;BME280;48110;47.532;19.078;2023-03-17T10:49:06;101258.72;;;9.06;32.78
62124;BME280;48110;47.532;19.078;2023-03-17T10:52:14;101263.38;;;9.33;33.41
62124;BME280;48110;47.532;19.078;2023-03-17T10:55:22;101268.78;;;9.22;34.45
62124;BME280;48110;47.532;19.078;2023-03-17T10:58:48;101261.97;;;9.19;32.78
62124;BME280;48110;47.532;19.078;2023-03-17T11:02:06;101248.75;;;9.29;32.77
62124;BME280;48110;47.532;19.078;2023-03-17T11:05:22;101253.34;;;9.46;32.33
62124;BME280;48110;47.532;19.078;2023-03-17T11:08:32;101255.84;;;10.79;30.92
62124;BME280;48110;47.532;19.078;2023-03-17T11:11:42;101244.25;;;14.82;26.24
62124;BME280;48110;47.532;19.078;2023-03-17T11:14:47;101242.25;;;15.83;24.43
62124;BME280;48110;47.532;19.078;2023-03-17T11:17:56;101234.63;;;17.76;21.92
62124;BME280;48110;47.532;19.078;2023-03-17T11:24:16;101219.28;;;22.52;17.91
62124;BME280;48110;47.532;19.078;2023-03-17T11:30:30;101226.06;;;21.19;18.19
62124;BME280;48110;47.532;19.078;2023-03-17T11:33:41;101216.91;;;20.75;19.39
62124;BME280;48110;47.532;19.078;2023-03-17T11:40:37;101216.28;;;20.73;18.98
62124;BME280;48110;47.532;19.078;2023-03-17T11:47:07;101212.72;;;19.56;19.11
62124;BME280;48110;47.532;19.078;2023-03-17T11:50:26;101193.16;;;18.47;20.11
62124;BME280;48110;47.532;19.078;2023-03-17T11:57:14;101180.34;;;20.86;18.21
62124;BME280;48110;47.532;19.078;2023-03-17T12:03:32;101172.97;;;22.48;17.71
62124;BME280;48110;47.532;19.078;2023-03-17T12:06:41;101171.12;;;21.63;18.22
62124;BME280;48110;47.532;19.078;2023-03-17T12:09:53;101152.00;;;17.50;21.09
62124;BME280;48110;47.532;19.078;2023-03-17T12:13:15;101139.28;;;20.39;19.31
62124;BME280;48110;47.532;19.078;2023-03-17T12:16:26;101133.28;;;15.62;22.81
62124;BME280;48110;47.532;19.078;2023-03-17T12:19:44;101138.50;;;18.68;21.56
62124;BME280;48110;47.532;19.078;2023-03-17T12:22:54;101139.41;;;19.01;20.01
62124;BME280;48110;47.532;19.078;2023-03-17T12:26:03;101138.84;;;19.59;19.77
62124;BME280;48110;47.532;19.078;2023-03-17T12:29:13;101133.34;;;22.72;18.15
62124;BME280;48110;47.532;19.078;2023-03-17T12:32:19;101121.78;;;20.93;19.21
62124;BME280;48110;47.532;19.078;2023-03-17T12:35:31;101124.03;;;18.76;20.24
62124;BME280;48110;47.532;19.078;2023-03-17T12:54:59;101095.84;;;22.76;17.03
62124;BME280;48110;47.532;19.078;2023-03-17T13:04:35;101092.91;;;17.65;21.36
62124;BME280;48110;47.532;19.078;2023-03-17T13:10:43;101083.81;;;20.12;19.19
62124;BME280;48110;47.532;19.078;2023-03-17T13:13:55;101080.84;;;20.33;18.71
62124;BME280;48110;47.532;19.078;2023-03-17T13:17:04;101077.47;;;17.73;20.80
62124;BME280;48110;47.532;19.078;2023-03-17T13:20:38;101067.75;;;16.53;21.99
62124;BME280;48110;47.532;19.078;2023-03-17T13:29:58;101065.94;;;19.67;19.26
62124;BME280;48110;47.532;19.078;2023-03-17T13:45:35;101064.78;;;15.39;23.87
62124;BME280;48110;47.532;19.078;2023-03-17T13:48:39;101072.72;;;14.33;24.32
62124;BME280;48110;47.532;19.078;2023-03-17T13:58:24;101059.66;;;20.44;18.94
62124;BME280;48110;47.532;19.078;2023-03-17T14:01:46;101053.41;;;20.50;20.03
62124;BME280;48110;47.532;19.078;2023-03-17T14:05:04;101054.34;;;21.67;17.98
62124;BME280;48110;47.532;19.078;2023-03-17T14:08:20;101053.34;;;21.44;17.89
62124;BME280;48110;47.532;19.078;2023-03-17T14:11:26;101049.16;;;21.84;17.24
62124;BME280;48110;47.532;19.078;2023-03-17T14:18:15;101040.13;;;20.48;18.63
62124;BME280;48110;47.532;19.078;2023-03-17T14:21:22;101031.00;;;20.80;18.02
62124;BME280;48110;47.532;19.078;2023-03-17T14:24:28;101021.69;;;18.90;19.88
62124;BME280;48110;47.532;19.078;2023-03-17T14:27:32;101016.34;;;17.07;21.72
62124;BME280;48110;47.532;19.078;2023-03-17T14:30:38;101003.34;;;16.61;22.56
62124;BME280;48110;47.532;19.078;2023-03-17T14:33:43;101006.59;;;19.16;20.67
62124;BME280;48110;47.532;19.078;2023-03-17T14:36:49;101004.31;;;18.99;20.43
62124;BME280;48110;47.532;19.078;2023-03-17T14:39:55;101001.72;;;17.37;21.62
62124;BME280;48110;47.532;19.078;2023-03-17T14:43:01;101006.03;;;17.10;22.05
62124;BME280;48110;47.532;19.078;2023-03-17T14:46:05;100995.25;;;14.87;24.23
62124;BME280;48110;47.532;19.078;2023-03-17T14:49:15;100998.81;;;13.25;25.97
62124;BME280;48110;47.532;19.078;2023-03-17T14:52:25;100992.84;;;12.90;26.79
62124;BME280;48110;47.532;19.078;2023-03-17T14:55:34;100977.72;;;12.58;27.42
62124;BME280;48110;47.532;19.078;2023-03-17T14:58:42;100974.66;;;12.21;28.18
62124;BME280;48110;47.532;19.078;2023-03-17T15:01:52;100963.72;;;12.40;28.32
62124;BME280;48110;47.532;19.078;2023-03-17T15:05:02;100957.88;;;12.12;28.77
62124;BME280;48110;47.532;19.078;2023-03-17T15:11:36;100963.34;;;11.27;30.20
62124;BME280;48110;47.532;19.078;2023-03-17T15:14:43;100959.19;;;11.24;29.59
62124;BME280;48110;47.532;19.078;2023-03-17T15:17:49;100952.06;;;11.33;30.69
62124;BME280;48110;47.532;19.078;2023-03-17T15:20:55;100946.94;;;11.31;29.78
62124;BME280;48110;47.532;19.078;2023-03-17T15:24:05;100939.34;;;11.11;30.18
62124;BME280;48110;47.532;19.078;2023-03-17T15:27:15;100929.38;;;11.05;31.22
62124;BME280;48110;47.532;19.078;2023-03-17T15:30:18;100944.03;;;10.65;30.92
62124;BME280;48110;47.532;19.078;2023-03-17T15:36:31;100929.03;;;10.56;31.58
62124;BME280;48110;47.532;19.078;2023-03-17T15:39:36;100931.34;;;10.33;31.91
62124;BME280;48110;47.532;19.078;2023-03-17T15:42:41;100934.69;;;10.18;31.62
62124;BME280;48110;47.532;19.078;2023-03-17T15:45:46;100935.06;;;10.23;32.11
62124;BME280;48110;47.532;19.078;2023-03-17T15:48:53;100934.25;;;9.95;32.21
62124;BME280;48110;47.532;19.078;2023-03-17T15:51:58;100927.88;;;9.88;32.15
62124;BME280;48110;47.532;19.078;2023-03-17T15:55:05;100927.72;;;9.72;32.00
62124;BME280;48110;47.532;19.078;2023-03-17T15:58:12;100931.50;;;9.69;32.46
62124;BME280;48110;47.532;19.078;2023-03-17T16:01:18;100924.50;;;9.50;31.72
62124;BME280;48110;47.532;19.078;2023-03-17T16:04:23;100925.25;;;9.43;32.58
62124;BME280;48110;47.532;19.078;2023-03-17T16:07:29;100921.37;;;9.37;33.18
62124;BME280;48110;47.532;19.078;2023-03-17T16:10:36;100917.19;;;9.35;32.67
62124;BME280;48110;47.532;19.078;2023-03-17T16:13:42;100915.41;;;9.26;32.67
62124;BME280;48110;47.532;19.078;2023-03-17T16:16:49;100921.16;;;9.21;33.26
62124;BME280;48110;47.532;19.078;2023-03-17T16:19:55;100927.84;;;9.15;33.55
62124;BME280;48110;47.532;19.078;2023-03-17T16:23:20;100921.47;;;9.08;33.08
62124;BME280;48110;47.532;19.078;2023-03-17T16:26:26;100926.09;;;8.97;33.73
62124;BME280;48110;47.532;19.078;2023-03-17T16:29:33;100928.91;;;8.95;33.34
62124;BME280;48110;47.532;19.078;2023-03-17T16:32:38;100924.72;;;8.93;33.45
62124;BME280;48110;47.532;19.078;2023-03-17T16:35:45;100933.94;;;8.89;34.12
62124;BME280;48110;47.532;19.078;2023-03-17T16:38:51;100933.94;;;8.89;34.01
62124;BME280;48110;47.532;19.078;2023-03-17T16:41:58;100932.72;;;8.73;35.06
62124;BME280;48110;47.532;19.078;2023-03-17T16:45:12;100938.59;;;8.58;34.71
62124;BME280;48110;47.532;19.078;2023-03-17T16:48:19;100939.84;;;8.54;34.65
62124;BME280;48110;47.532;19.078;2023-03-17T16:51:28;100936.66;;;8.31;35.58
62124;BME280;48110;47.532;19.078;2023-03-17T16:54:36;100941.25;;;8.39;35.51
62124;BME280;48110;47.532;19.078;2023-03-17T16:57:44;100928.75;;;8.41;35.79
62124;BME280;48110;47.532;19.078;2023-03-17T17:00:52;100934.28;;;8.38;36.03
62124;BME280;48110;47.532;19.078;2023-03-17T17:04:00;100946.06;;;7.95;37.04
62124;BME280;48110;47.532;19.078;2023-03-17T17:07:05;100938.84;;;7.97;36.86
62124;BME280;48110;47.532;19.078;2023-03-17T17:10:13;100934.09;;;7.81;38.40
62124;BME280;48110;47.532;19.078;2023-03-17T17:13:18;100939.63;;;7.69;38.30
62124;BME280;48110;47.532;19.078;2023-03-17T17:19:27;100944.97;;;7.88;37.80
62124;BME280;48110;47.532;19.078;2023-03-17T17:22:31;100937.47;;;8.03;37.30
62124;BME280;48110;47.532;19.078;2023-03-17T17:25:41;100938.31;;;8.03;37.50
62124;BME280;48110;47.532;19.078;2023-03-17T17:28:48;100945.94;;;8.06;37.37
62124;BME280;48110;47.532;19.078;2023-03-17T17:31:53;100951.75;;;7.81;38.72
62124;BME280;48110;47.532;19.078;2023-03-17T17:35:01;100936.84;;;7.80;38.46
62124;BME280;48110;47.532;19.078;2023-03-17T17:38:15;100939.81;;;7.96;37.96
62124;BME280;48110;47.532;19.078;2023-03-17T17:41:21;100943.41;;;7.85;38.63
62124;BME280;48110;47.532;19.078;2023-03-17T17:44:27;100941.84;;;7.64;39.49
62124;BME280;48110;47.532;19.078;2023-03-17T17:47:34;100943.31;;;7.47;39.87
62124;BME280;48110;47.532;19.078;2023-03-17T17:50:42;100944.44;;;7.45;39.98